createdAt,value
2023-03-05T00:03:36.020Z,23.50
2023-03-05T00:07:35.922Z,23.49
2023-03-05T00:11:35.872Z,23.48
2023-03-05T00:15:35.871Z,23.47
2023-03-05T00:19:35.794Z,23.46
2023-03-05T00:23:35.748Z,23.45
2023-03-05T00:27:35.710Z,23.44
2023-03-05T00:31:35.736Z,23.43
2023-03-05T00:35:36.138Z,23.42
2023-03-05T00:39:35.580Z,23.41
2023-03-05T00:43:35.593Z,23.41
2023-03-05T00:47:35.514Z,23.40
2023-03-05T00:51:35.515Z,23.39
2023-03-05T00:55:35.477Z,23.38
2023-03-05T00:59:35.657Z,23.37
2023-03-05T01:03:35.627Z,23.35
2023-03-05T01:07:35.556Z,23.35
2023-03-05T01:11:35.512Z,23.34
2023-03-05T01:15:35.480Z,23.33
2023-03-05T01:19:35.465Z,23.33
2023-03-05T01:23:35.387Z,23.32
2023-03-05T01:27:35.344Z,23.31
2023-03-05T01:31:35.372Z,23.30
2023-03-05T01:35:35.333Z,23.29
2023-03-05T01:39:35.292Z,23.28
2023-03-05T01:43:35.330Z,23.27
2023-03-05T01:47:35.383Z,23.27
2023-03-05T01:51:35.362Z,23.26
2023-03-05T01:55:35.305Z,23.25
2023-03-05T01:59:35.247Z,23.25
2023-03-05T02:03:35.267Z,23.23
2023-03-05T02:07:35.165Z,23.23
2023-03-05T02:11:35.121Z,23.22
2023-03-05T02:15:35.118Z,23.21
2023-03-05T02:19:35.091Z,23.20
2023-03-05T02:23:35.090Z,23.19
2023-03-05T02:27:35.040Z,23.19
2023-03-05T02:31:35.045Z,23.17
2023-03-05T02:35:34.975Z,23.17
2023-03-05T02:39:34.883Z,23.17
2023-03-05T02:43:34.845Z,23.16
2023-03-05T02:47:34.830Z,23.16
2023-03-05T02:51:34.819Z,23.14
2023-03-05T02:55:34.698Z,23.12
2023-03-05T02:59:34.704Z,23.12
2023-03-05T03:03:34.696Z,23.12
2023-03-05T03:07:34.727Z,23.10
2023-03-05T03:11:34.696Z,23.10
2023-03-05T03:15:34.620Z,23.09
2023-03-05T03:19:34.570Z,23.08
2023-03-05T03:23:34.562Z,23.07
2023-03-05T03:27:34.547Z,23.07
2023-03-05T03:31:34.468Z,23.06
2023-03-05T03:35:34.473Z,23.06
2023-03-05T03:39:34.405Z,23.05
2023-03-05T03:43:34.365Z,23.04
2023-03-05T03:47:34.341Z,23.04
2023-03-05T03:51:34.260Z,23.03
2023-03-05T03:55:34.280Z,23.02
2023-03-05T03:59:34.243Z,23.00
2023-03-05T04:03:34.181Z,23.00
2023-03-05T04:07:34.108Z,23.00
2023-03-05T04:11:34.093Z,22.98
2023-03-05T04:15:34.043Z,22.98
2023-03-05T04:19:34.016Z,22.98
2023-03-05T04:23:33.991Z,22.97
2023-03-05T04:27:33.933Z,22.97
2023-03-05T04:31:33.934Z,22.95
2023-03-05T04:35:33.872Z,22.96
2023-03-05T04:39:33.818Z,22.94
2023-03-05T04:43:33.764Z,22.93
2023-03-05T04:47:33.739Z,22.93
2023-03-05T04:51:33.686Z,22.92
2023-03-05T04:55:33.660Z,22.91
2023-03-05T04:59:33.635Z,22.90
2023-03-05T05:03:33.550Z,22.90
2023-03-05T05:07:33.613Z,22.90
2023-03-05T05:11:33.677Z,22.89
2023-03-05T05:15:33.703Z,22.88
2023-03-05T05:19:33.840Z,22.88
2023-03-05T05:23:33.799Z,22.87
2023-03-05T05:27:33.872Z,22.86
2023-03-05T05:31:34.137Z,22.86
2023-03-05T05:35:34.211Z,22.85
2023-03-05T05:39:34.201Z,22.85
2023-03-05T05:43:34.300Z,22.85
2023-03-05T05:47:34.377Z,22.84
2023-03-05T05:51:34.443Z,22.82
2023-03-05T05:55:34.504Z,22.83
2023-03-05T05:59:34.553Z,22.82
2023-03-05T06:03:34.586Z,22.82
2023-03-05T06:07:34.689Z,22.81
2023-03-05T06:11:34.784Z,22.80
2023-03-05T06:15:34.883Z,22.80
2023-03-05T06:19:34.950Z,22.80
2023-03-05T06:23:35.104Z,22.79
2023-03-05T06:27:35.086Z,22.79
2023-03-05T06:31:37.243Z,22.79
2023-03-05T06:35:35.256Z,22.79
2023-03-05T06:39:35.319Z,22.81
2023-03-05T06:43:35.369Z,22.80
2023-03-05T06:47:35.430Z,22.80
2023-03-05T06:51:35.489Z,22.80
2023-03-05T06:55:35.591Z,22.82
2023-03-05T06:59:35.675Z,22.81
2023-03-05T07:03:35.737Z,22.81
2023-03-05T07:07:35.796Z,22.81
2023-03-05T07:11:35.896Z,22.81
2023-03-05T07:15:36.005Z,22.81
2023-03-05T07:19:36.022Z,22.82
2023-03-05T07:23:36.143Z,22.83
2023-03-05T07:27:36.218Z,22.83
2023-03-05T07:31:36.280Z,22.83
2023-03-05T07:35:36.386Z,22.84
2023-03-05T07:39:36.402Z,22.85
2023-03-05T07:43:36.408Z,22.87
2023-03-05T07:47:36.584Z,22.88
2023-03-05T07:51:36.569Z,22.90
2023-03-05T07:55:36.518Z,22.92
2023-03-05T07:59:36.484Z,22.93
2023-03-05T08:03:36.437Z,22.94
2023-03-05T08:07:36.403Z,22.96
2023-03-05T08:11:36.377Z,22.98
2023-03-05T08:15:36.387Z,22.99
2023-03-05T08:19:36.305Z,22.99
2023-03-05T08:23:36.247Z,22.98
2023-03-05T08:27:36.280Z,22.98
2023-03-05T08:31:36.236Z,22.97
2023-03-05T08:35:36.189Z,22.97
2023-03-05T08:39:36.088Z,23.01
2023-03-05T08:43:36.059Z,23.01
2023-03-05T08:47:36.049Z,23.01
2023-03-05T08:51:35.997Z,23.03
2023-03-05T08:55:35.996Z,23.05
2023-03-05T08:59:35.916Z,23.07
2023-03-05T09:03:35.887Z,23.08
2023-03-05T09:07:35.873Z,23.09
2023-03-05T09:11:35.816Z,23.10
2023-03-05T09:15:35.765Z,23.13
2023-03-05T09:19:35.755Z,23.14
2023-03-05T09:23:35.718Z,23.16
2023-03-05T09:27:35.631Z,23.17
2023-03-05T09:31:35.679Z,23.17
2023-03-05T09:35:35.634Z,23.18
2023-03-05T09:39:35.576Z,23.19
2023-03-05T09:43:35.503Z,23.20
2023-03-05T09:47:35.433Z,23.20
2023-03-05T09:51:35.443Z,23.22
2023-03-05T09:55:35.382Z,23.23
2023-03-05T09:59:35.330Z,23.24
2023-03-05T10:03:35.411Z,23.25
2023-03-05T10:07:35.308Z,23.25
2023-03-05T10:11:35.296Z,23.27
2023-03-05T10:15:35.202Z,23.29
2023-03-05T10:19:35.344Z,23.30
2023-03-05T10:23:35.464Z,23.31
2023-03-05T10:27:35.531Z,23.32
2023-03-05T10:31:35.649Z,23.32
2023-03-05T10:35:35.588Z,23.33
2023-03-05T10:39:35.581Z,23.34
2023-03-05T10:43:35.523Z,23.35
2023-03-05T10:47:35.470Z,23.35
2023-03-05T10:51:35.400Z,23.36
2023-03-05T10:55:35.398Z,23.38
2023-03-05T10:59:35.962Z,23.38
2023-03-05T11:03:35.638Z,23.39
2023-03-05T11:07:35.610Z,23.39
2023-03-05T11:11:35.514Z,23.40
2023-03-05T11:15:35.549Z,23.41
2023-03-05T11:19:35.424Z,23.42
2023-03-05T11:23:35.399Z,23.43
2023-03-05T11:27:35.380Z,23.43
2023-03-05T11:31:35.335Z,23.44
2023-03-05T11:35:35.286Z,23.45
2023-03-05T11:39:35.261Z,23.46
2023-03-05T11:43:35.208Z,23.48
2023-03-05T11:47:35.191Z,23.48
2023-03-05T11:51:35.140Z,23.50
2023-03-05T11:55:35.097Z,23.49
2023-03-05T11:59:35.154Z,23.51
2023-03-05T12:03:35.399Z,23.52
2023-03-05T12:07:35.548Z,23.52
2023-03-05T12:11:35.690Z,23.53
2023-03-05T12:15:35.928Z,23.54
2023-03-05T12:19:36.089Z,23.54
2023-03-05T12:23:36.288Z,23.54
2023-03-05T12:27:36.537Z,23.55
2023-03-05T12:31:36.788Z,23.56
2023-03-05T12:35:37.093Z,23.57
2023-03-05T12:39:36.913Z,23.58
2023-03-05T12:43:36.867Z,23.60
2023-03-05T12:47:38.343Z,23.61
2023-03-05T12:51:36.803Z,23.63
2023-03-05T12:55:36.779Z,23.67
2023-03-05T12:59:36.677Z,23.69
2023-03-05T13:03:36.719Z,23.71
2023-03-05T13:07:36.626Z,23.75
2023-03-05T13:11:36.583Z,23.77
2023-03-05T13:15:36.556Z,23.82
2023-03-05T13:19:36.483Z,23.84
2023-03-05T13:23:36.446Z,23.87
2023-03-05T13:27:36.552Z,23.92
2023-03-05T13:31:36.779Z,23.98
2023-03-05T13:35:36.905Z,24.02
2023-03-05T13:39:36.802Z,24.06
2023-03-05T13:43:36.769Z,24.12
2023-03-05T13:47:36.713Z,24.18
2023-03-05T13:51:36.677Z,24.25
2023-03-05T13:59:55.159Z,24.37
2023-03-05T14:03:55.902Z,24.44
2023-03-05T14:07:55.427Z,24.50
2023-03-05T14:11:55.366Z,24.54
2023-03-05T14:15:55.316Z,24.58
2023-03-05T14:19:55.305Z,24.62
2023-03-05T14:23:55.472Z,24.66
2023-03-05T14:27:55.657Z,24.71
2023-03-05T14:31:55.858Z,24.76
2023-03-05T14:35:55.935Z,24.80
2023-03-05T14:39:55.855Z,24.86
2023-03-05T14:43:55.769Z,24.93
2023-03-05T14:47:55.781Z,25.00
2023-03-05T14:51:55.734Z,25.07
2023-03-05T14:55:55.677Z,25.13
2023-03-05T14:59:55.726Z,25.19
2023-03-05T15:03:55.637Z,25.25
2023-03-05T15:07:55.590Z,25.31
2023-03-05T15:11:55.545Z,25.36
2023-03-05T15:15:55.947Z,25.40
2023-03-05T15:19:55.917Z,25.44
2023-03-05T15:23:56.082Z,25.47
2023-03-05T15:27:56.225Z,25.52
2023-03-05T15:31:56.378Z,25.57
2023-03-05T15:35:56.559Z,25.61
2023-03-05T15:39:56.664Z,25.60
2023-03-05T15:43:56.826Z,25.61
2023-03-05T15:47:56.960Z,25.63
2023-03-05T15:51:57.124Z,25.54
2023-03-05T15:55:57.236Z,25.49
2023-03-05T15:59:57.454Z,25.39
2023-03-05T16:03:57.619Z,25.32
2023-03-05T16:07:57.847Z,25.26
2023-03-05T16:11:57.805Z,25.22
2023-03-05T16:15:57.858Z,25.18
2023-03-05T16:19:57.749Z,25.15
2023-03-05T16:23:57.679Z,25.12
2023-03-05T16:27:57.680Z,25.09
2023-03-05T16:31:57.649Z,25.06
2023-03-05T16:35:58.425Z,25.01
2023-03-05T16:39:57.561Z,24.98
2023-03-05T16:43:57.541Z,24.95
2023-03-05T16:47:57.513Z,24.93
2023-03-05T16:51:59.405Z,24.90
2023-03-05T16:55:57.655Z,24.86
2023-03-05T16:59:57.629Z,24.82
2023-03-05T17:03:57.601Z,24.80
2023-03-05T17:07:57.586Z,24.77
2023-03-05T17:11:57.533Z,24.74
2023-03-05T17:15:57.771Z,24.73
2023-03-05T17:19:57.477Z,24.71
2023-03-05T17:23:57.403Z,24.69
2023-03-05T17:27:57.410Z,24.67
2023-03-05T17:31:57.425Z,24.65
2023-03-05T17:35:57.329Z,24.64
2023-03-05T17:39:57.300Z,24.62
2023-03-05T17:43:57.267Z,24.60
2023-03-05T17:47:58.696Z,24.58
2023-03-05T17:51:57.166Z,24.56
2023-03-05T17:55:57.140Z,24.55
2023-03-05T17:59:57.096Z,24.54
2023-03-05T18:03:57.109Z,24.54
2023-03-05T18:07:57.040Z,24.52
2023-03-05T18:11:57.004Z,24.50
2023-03-05T18:15:57.076Z,24.47
2023-03-05T18:19:57.144Z,24.46
2023-03-05T18:23:57.287Z,24.45
2023-03-05T18:27:57.330Z,24.43
2023-03-05T18:31:57.453Z,24.42
2023-03-05T18:35:57.688Z,24.40
2023-03-05T18:39:57.806Z,24.39
2023-03-05T18:43:57.854Z,24.37
2023-03-05T18:47:58.003Z,24.36
2023-03-05T18:51:58.062Z,24.34
2023-03-05T18:55:58.194Z,24.32
2023-03-05T18:59:58.324Z,24.30
2023-03-05T19:03:58.482Z,24.29
2023-03-05T19:07:58.616Z,24.27
2023-03-05T19:11:58.779Z,24.26
2023-03-05T19:15:58.998Z,24.24
2023-03-05T19:19:59.072Z,24.22
2023-03-05T19:23:59.275Z,24.22
2023-03-05T19:27:59.427Z,24.20
2023-03-05T19:31:59.652Z,24.19
2023-03-05T19:35:59.809Z,24.17
2023-03-05T19:39:59.995Z,24.15
2023-03-05T19:44:00.176Z,24.14
2023-03-05T19:48:00.389Z,24.13
2023-03-05T19:52:00.580Z,24.12
2023-03-05T19:56:00.746Z,24.11
2023-03-05T20:00:00.955Z,24.09
2023-03-05T20:04:01.188Z,24.08
2023-03-05T20:08:01.442Z,24.06
2023-03-05T20:12:01.384Z,24.05
2023-03-05T20:16:01.332Z,24.03
2023-03-05T20:20:01.296Z,24.02
2023-03-05T20:24:01.228Z,24.01
2023-03-05T20:28:01.215Z,24.00
2023-03-05T20:32:01.153Z,23.99
2023-03-05T20:36:01.151Z,23.97
2023-03-05T20:40:01.124Z,23.96
2023-03-05T20:44:01.023Z,23.96
2023-03-05T20:48:01.117Z,23.94
2023-03-05T20:52:01.112Z,23.93
2023-03-05T20:56:01.032Z,23.91
2023-03-05T21:00:01.023Z,23.90
2023-03-05T21:04:00.999Z,23.89
2023-03-05T21:08:00.940Z,23.87
2023-03-05T21:12:00.903Z,23.86
2023-03-05T21:16:00.890Z,23.85
2023-03-05T21:20:00.781Z,23.84
2023-03-05T21:24:00.751Z,23.82
2023-03-05T21:28:00.725Z,23.81
2023-03-05T21:32:00.814Z,23.80
2023-03-05T21:36:00.688Z,23.79
2023-03-05T21:40:00.651Z,23.77
2023-03-05T21:44:00.593Z,23.76
2023-03-05T21:48:00.559Z,23.75
2023-03-05T21:52:00.496Z,23.73
2023-03-05T21:56:00.457Z,23.72
2023-03-05T22:00:00.435Z,23.70
2023-03-05T22:04:00.521Z,23.69
2023-03-05T22:08:00.386Z,23.68
2023-03-05T22:12:00.322Z,23.67
2023-03-05T22:16:00.281Z,23.65
2023-03-05T22:20:00.230Z,23.65
2023-03-05T22:24:00.168Z,23.63
2023-03-05T22:28:00.276Z,23.63
2023-03-05T22:32:00.284Z,23.61
2023-03-05T22:36:00.308Z,23.61
2023-03-05T22:40:00.251Z,23.58
2023-03-05T22:44:00.266Z,23.56
2023-03-05T22:48:00.339Z,23.56
2023-03-05T22:52:00.332Z,23.55
2023-03-05T22:56:00.387Z,23.54
2023-03-05T23:00:00.423Z,23.53
2023-03-05T23:04:00.483Z,23.52
2023-03-05T23:08:00.482Z,23.50
2023-03-05T23:12:00.505Z,23.50
2023-03-05T23:16:00.673Z,23.49
2023-03-05T23:20:00.647Z,23.48
2023-03-05T23:24:00.665Z,23.47
2023-03-05T23:28:00.787Z,23.45
2023-03-05T23:32:00.812Z,23.44
2023-03-05T23:36:00.863Z,23.44
2023-03-05T23:40:00.915Z,23.43
2023-03-05T23:44:00.983Z,23.41
2023-03-05T23:48:01.005Z,23.40
2023-03-05T23:52:01.069Z,23.39
2023-03-05T23:56:01.165Z,23.38
